createdAt,value
2023-02-15T00:02:47.662Z,36.4
2023-02-15T00:08:24.810Z,36.4
2023-02-15T00:14:02.014Z,36.3
2023-02-15T00:19:23.696Z,36.2
2023-02-15T00:25:00.886Z,36.1
2023-02-15T00:30:38.652Z,36.1
2023-02-15T00:36:16.753Z,36.1
2023-02-15T00:41:38.319Z,36
2023-02-15T00:47:00.959Z,35.9
2023-02-15T00:52:21.387Z,35.9
2023-02-15T00:57:59.419Z,35.8
2023-02-15T01:03:37.419Z,35.7
2023-02-15T01:09:16.476Z,35.7
2023-02-15T01:14:53.988Z,35.6
2023-02-15T01:20:31.978Z,35.6
2023-02-15T01:25:37.645Z,35.5
2023-02-15T01:30:59.327Z,35.4
2023-02-15T01:36:37.682Z,35.4
2023-02-15T01:42:14.312Z,35.4
2023-02-15T01:47:51.602Z,35.3
2023-02-15T01:53:30.240Z,35.2
2023-02-15T01:59:07.394Z,35.2
2023-02-15T02:04:29.248Z,36
2023-02-15T02:10:06.321Z,37.1
2023-02-15T02:15:42.725Z,37.9
2023-02-15T02:21:21.088Z,38.4
2023-02-15T02:26:43.600Z,39.1
2023-02-15T02:32:05.469Z,39.8
2023-02-15T02:37:11.646Z,40.4
2023-02-15T02:42:33.934Z,41.1
2023-02-15T02:48:11.344Z,41.7
2023-02-15T02:53:49.151Z,42.4
2023-02-15T02:59:26.903Z,43.1
2023-02-15T03:05:04.861Z,43.6
2023-02-15T03:10:41.470Z,44.4
2023-02-15T03:16:19.063Z,44.7
2023-02-15T03:21:55.898Z,44.8
2023-02-15T03:27:34.966Z,44.9
2023-02-15T03:33:13.214Z,45.1
2023-02-15T03:39:06.170Z,45.1
2023-02-15T03:44:28.344Z,45.1
2023-02-15T03:49:51.139Z,45.1
2023-02-15T03:55:12.153Z,45.1
2023-02-15T04:00:34.958Z,45.1
2023-02-15T04:06:12.940Z,45.1
2023-02-15T04:11:50.470Z,45.1
2023-02-15T04:17:14.815Z,45
2023-02-15T04:22:52.631Z,45
2023-02-15T04:28:15.651Z,44.9
2023-02-15T04:33:38.519Z,44.9
2023-02-15T04:39:15.871Z,44.8
2023-02-15T04:44:52.466Z,44.8
2023-02-15T04:50:31.280Z,44.7
2023-02-15T04:55:53.623Z,44.6
2023-02-15T05:01:29.746Z,44.6
2023-02-15T05:07:07.638Z,44.6
2023-02-15T05:12:45.021Z,44.5
2023-02-15T05:18:07.350Z,44.4
2023-02-15T05:23:44.631Z,44.4
2023-02-15T05:29:05.736Z,44.3
2023-02-15T05:34:30.268Z,44.3
2023-02-15T05:40:07.606Z,44.1
2023-02-15T05:45:44.426Z,44.1
2023-02-15T05:51:22.684Z,44
2023-02-15T05:56:28.503Z,44
2023-02-15T06:02:06.350Z,43.9
2023-02-15T06:07:46.297Z,43.8
2023-02-15T06:13:26.762Z,43.8
2023-02-15T06:19:04.296Z,43.6
2023-02-15T06:24:40.575Z,43.5
2023-02-15T06:30:17.493Z,43.4
2023-02-15T06:35:55.821Z,43.3
2023-02-15T06:41:33.256Z,43.2
2023-02-15T06:46:55.654Z,43.1
2023-02-15T06:52:33.026Z,42.9
2023-02-15T06:58:10.599Z,37.6
2023-02-15T07:03:48.450Z,34.5
2023-02-15T07:09:26.279Z,33.4
2023-02-15T07:15:03.704Z,32.8
2023-02-15T07:20:43.926Z,32.5
2023-02-15T07:26:21.031Z,32.3
2023-02-15T07:32:00.577Z,32.2
2023-02-15T07:37:23.706Z,32.1
2023-02-15T07:43:01.336Z,32.1
2023-02-15T07:48:41.419Z,32
2023-02-15T07:54:04.228Z,31.9
2023-02-15T07:59:28.176Z,31.9
2023-02-15T08:04:50.579Z,31.9
2023-02-15T08:10:12.782Z,31.8
2023-02-15T08:15:50.991Z,31.9
2023-02-15T08:21:28.922Z,31.8
2023-02-15T08:27:07.046Z,31.8
2023-02-15T08:32:31.951Z,31.8
2023-02-15T08:38:09.059Z,31.7
2023-02-15T08:43:46.704Z,31.7
2023-02-15T08:49:08.363Z,31.7
2023-02-15T08:54:46.159Z,31.6
2023-02-15T09:00:24.365Z,31.6
2023-02-15T09:06:02.408Z,31.6
2023-02-15T09:11:23.545Z,31.6
2023-02-15T09:17:04.850Z,31.6
2023-02-15T09:22:41.904Z,31.5
2023-02-15T09:28:31.228Z,31.5
2023-02-15T09:34:10.442Z,31.4
2023-02-15T09:40:04.528Z,31.4
2023-02-15T09:45:42.265Z,31.4
2023-02-15T09:51:20.534Z,31.4
2023-02-15T09:56:57.606Z,31.4
2023-02-15T10:02:35.492Z,31.4
2023-02-15T10:07:57.288Z,31.3
2023-02-15T10:13:48.646Z,31.3
2023-02-15T10:19:10.227Z,31.3
2023-02-15T10:24:49.299Z,31.3
2023-02-15T10:30:26.224Z,31.3
2023-02-15T10:36:04.863Z,31.2
2023-02-15T10:41:12.015Z,31.2
2023-02-15T10:46:35.407Z,31.1
2023-02-15T10:52:16.235Z,31.1
2023-02-15T10:57:53.748Z,31.1
2023-02-15T11:03:31.467Z,48.3
2023-02-15T11:09:08.397Z,43.2
2023-02-15T11:14:49.723Z,40.4
2023-02-15T11:20:27.336Z,38.5
2023-02-15T11:26:04.426Z,50.1
2023-02-15T11:31:45.277Z,50.4
2023-02-15T11:37:07.988Z,51.9
2023-02-15T11:42:45.739Z,52.8
2023-02-15T11:48:09.682Z,53.4
2023-02-15T11:53:35.257Z,54.1
2023-02-15T11:58:57.940Z,54.7
2023-02-15T12:04:36.225Z,55.2
2023-02-15T12:10:13.316Z,55.7
2023-02-15T12:15:51.429Z,56.1
2023-02-15T12:21:32.635Z,56.4
2023-02-15T12:26:42.106Z,56.6
2023-02-15T12:32:06.561Z,56.9
2023-02-15T12:37:30.744Z,56.9
2023-02-15T12:43:14.891Z,57.1
2023-02-15T12:48:40.587Z,57.2
2023-02-15T12:54:40.140Z,57.2
2023-02-15T13:00:20.967Z,57.2
2023-02-15T13:06:01.501Z,57.2
2023-02-15T13:11:39.032Z,57.2
2023-02-15T13:17:01.042Z,57.1
2023-02-15T13:22:23.526Z,57
2023-02-15T13:28:14.892Z,56.7
2023-02-15T13:33:53.337Z,56.4
2023-02-15T13:39:44.695Z,56.1
2023-02-15T13:45:06.636Z,55.8
2023-02-15T13:50:59.119Z,55.4
2023-02-15T13:56:35.694Z,54.9
2023-02-15T14:01:57.254Z,54.1
2023-02-15T14:07:36.250Z,53.6
2023-02-15T14:12:58.930Z,53.1
2023-02-15T14:18:28.622Z,52.5
2023-02-15T14:23:52.308Z,49.3
2023-02-15T14:29:32.482Z,46
2023-02-15T14:35:14.585Z,43.6
2023-02-15T14:40:53.066Z,42.3
2023-02-15T14:46:31.060Z,41.4
2023-02-15T14:52:08.767Z,40.7
2023-02-15T14:57:49.870Z,40.1
2023-02-15T15:03:26.922Z,39.6
2023-02-15T15:08:51.730Z,39.3
2023-02-15T15:14:47.618Z,38.9
2023-02-15T15:20:40.552Z,38.5
2023-02-15T15:26:18.028Z,38.2
2023-02-15T15:31:56.961Z,37.9
2023-02-15T15:37:33.772Z,37.6
2023-02-15T15:43:09.715Z,37.4
2023-02-15T15:48:41.017Z,37.1
2023-02-15T15:54:02.711Z,36.9
2023-02-15T15:59:25.506Z,36.7
2023-02-15T16:04:48.430Z,36.5
2023-02-15T16:10:25.539Z,36.3
2023-02-15T16:15:48.131Z,35.9
2023-02-15T16:21:26.814Z,35.6
2023-02-15T16:27:06.552Z,35.4
2023-02-15T16:32:44.062Z,35.3
2023-02-15T16:38:21.216Z,35.1
2023-02-15T16:43:44.475Z,34.9
2023-02-15T16:49:21.835Z,34.8
2023-02-15T16:55:00.145Z,34.6
2023-02-15T17:00:37.108Z,34.5
2023-02-15T17:11:48.222Z,34.2
2023-02-15T17:17:27.484Z,34.1
2023-02-15T17:22:50.476Z,33.9
2023-02-15T17:28:28.810Z,33.9
2023-02-15T17:34:08.990Z,33.8
2023-02-15T17:39:46.260Z,33.7
2023-02-15T17:45:23.959Z,33.6
2023-02-15T17:51:02.631Z,33.5
2023-02-15T17:56:40.498Z,33.4
2023-02-15T18:02:05.467Z,33.3
2023-02-15T18:07:27.441Z,33.3
2023-02-15T18:13:04.639Z,33.1
2023-02-15T18:18:42.212Z,33.1
2023-02-15T18:24:19.940Z,33
2023-02-15T18:29:56.071Z,32.9
2023-02-15T18:35:34.730Z,32.9
2023-02-15T18:41:12.098Z,32.8
2023-02-15T18:46:50.773Z,32.8
2023-02-15T18:52:27.478Z,32.6
2023-02-15T18:58:04.497Z,32.6
2023-02-15T19:03:41.565Z,32.6
2023-02-15T19:09:02.901Z,32.4
2023-02-15T19:14:42.328Z,32.4
2023-02-15T19:20:20.481Z,32.4
2023-02-15T19:25:57.126Z,32.3
2023-02-15T19:31:51.641Z,32.3
2023-02-15T19:37:28.860Z,32.3
2023-02-15T19:43:05.862Z,32.1
2023-02-15T19:48:47.623Z,32.1
2023-02-15T19:54:26.457Z,32.1
2023-02-15T20:00:21.034Z,32
2023-02-15T20:05:44.228Z,32
2023-02-15T20:11:36.683Z,31.8
2023-02-15T20:17:13.481Z,31.7
2023-02-15T20:22:52.559Z,31.8
2023-02-15T20:28:29.316Z,31.8
2023-02-15T20:34:08.092Z,31.7
2023-02-15T20:39:46.875Z,31.6
2023-02-15T20:45:24.575Z,31.6
2023-02-15T20:51:02.776Z,31.6
2023-02-15T20:56:40.491Z,31.5
2023-02-15T21:02:17.660Z,31.5
2023-02-15T21:07:55.587Z,31.4
2023-02-15T21:13:02.172Z,31.4
2023-02-15T21:18:39.321Z,31.4
2023-02-15T21:24:16.102Z,31.4
2023-02-15T21:29:37.784Z,31.3
2023-02-15T21:35:15.868Z,31.3
2023-02-15T21:40:37.494Z,31.3
2023-02-15T21:46:01.323Z,31.2
2023-02-15T21:51:23.270Z,31.2
2023-02-15T21:57:00.636Z,31.1
2023-02-15T22:02:38.585Z,31.1
2023-02-15T22:08:01.098Z,31
2023-02-15T22:13:22.434Z,31
2023-02-15T22:18:59.804Z,30.9
2023-02-15T22:24:36.452Z,30.9
2023-02-15T22:30:13.203Z,30.9
2023-02-15T22:35:36.468Z,30.8
2023-02-15T22:41:13.802Z,30.8
2023-02-15T22:46:52.298Z,30.8
2023-02-15T22:52:17.419Z,30.7
2023-02-15T22:57:39.410Z,30.7
2023-02-15T23:03:01.651Z,30.6
2023-02-15T23:08:08.563Z,30.6
2023-02-15T23:13:14.950Z,30.5
2023-02-15T23:18:21.776Z,30.5
2023-02-15T23:23:43.446Z,30.4
2023-02-15T23:29:05.965Z,30.4
2023-02-15T23:34:29.480Z,30.4
2023-02-15T23:39:52.045Z,30.3
2023-02-15T23:45:29.384Z,30.3
2023-02-15T23:51:06.752Z,29.9
2023-02-15T23:56:44.113Z,29
